createdAt,value
2022-08-05T00:00:53.486Z,101606.66
2022-08-05T00:03:19.946Z,101619.00
2022-08-05T00:06:06.562Z,101621.91
2022-08-05T00:08:52.236Z,101629.38
2022-08-05T00:11:49.436Z,101632.63
2022-08-05T00:14:22.594Z,101630.31
2022-08-05T00:16:55.427Z,101635.34
2022-08-05T00:19:33.831Z,101631.28
2022-08-05T00:22:42.439Z,101624.66
2022-08-05T00:25:45.407Z,101625.78
2022-08-05T00:28:16.060Z,101613.75
2022-08-05T00:31:53.912Z,101617.66
2022-08-05T00:34:53.546Z,101617.28
2022-08-05T00:37:14.473Z,101609.97
2022-08-05T00:39:59.293Z,101605.44
2022-08-05T00:42:37.398Z,101608.53
2022-08-05T00:45:08.802Z,101619.53
2022-08-05T00:47:56.834Z,101627.97
2022-08-05T00:50:54.371Z,101615.78
2022-08-05T00:54:00.195Z,101603.78
2022-08-05T00:56:22.939Z,101608.78
2022-08-05T00:59:19.156Z,101619.66
2022-08-05T01:01:52.553Z,101624.31
2022-08-05T01:04:20.167Z,101623.81
2022-08-05T01:07:07.780Z,101608.44
2022-08-05T01:09:46.929Z,101617.81
2022-08-05T01:12:35.290Z,101622.03
2022-08-05T01:15:06.117Z,101616.19
2022-08-05T01:17:58.098Z,101616.19
2022-08-05T01:20:54.066Z,101618.59
2022-08-05T01:23:26.398Z,101622.66
2022-08-05T01:26:56.360Z,101625.09
2022-08-05T01:29:38.847Z,101621.84
2022-08-05T01:32:12.411Z,101628.66
2022-08-05T01:34:54.645Z,101625.22
2022-08-05T01:38:26.939Z,101636.22
2022-08-05T01:41:01.645Z,101627.25
2022-08-05T01:43:36.516Z,101624.19
2022-08-05T01:46:16.276Z,101642.31
2022-08-05T01:48:49.806Z,101646.22
2022-08-05T01:51:18.239Z,101650.72
2022-08-05T01:53:57.273Z,101659.47
2022-08-05T01:58:10.553Z,101664.47
2022-08-05T01:59:40.509Z,101649.09
2022-08-05T02:02:14.062Z,101647.47
2022-08-05T02:04:54.853Z,101639.19
2022-08-05T02:08:01.260Z,101643.59
2022-08-05T02:10:41.695Z,101644.59
2022-08-05T02:13:17.233Z,101641.16
2022-08-05T02:15:56.262Z,101636.06
2022-08-05T02:19:09.861Z,101635.94
2022-08-05T02:21:46.794Z,101640.16
2022-08-05T02:24:25.953Z,101644.22
2022-08-05T02:27:00.081Z,101644.22
2022-08-05T02:29:59.136Z,101633.19
2022-08-05T02:32:39.116Z,101642.28
2022-08-05T02:35:28.132Z,101631.56
2022-08-05T02:38:15.415Z,101638.19
2022-08-05T02:40:53.440Z,101639.53
2022-08-05T02:43:24.654Z,101624.44
2022-08-05T02:45:54.085Z,101619.56
2022-08-05T02:48:29.410Z,101622.63
2022-08-05T02:52:04.119Z,101624.06
2022-08-05T02:54:36.108Z,101626.94
2022-08-05T02:58:19.949Z,101623.38
2022-08-05T02:59:57.825Z,101630.81
2022-08-05T03:02:33.923Z,101618.19
2022-08-05T03:05:01.966Z,101609.47
2022-08-05T03:08:00.505Z,101615.69
2022-08-05T03:10:22.080Z,101625.59
2022-08-05T03:12:55.267Z,101627.22
2022-08-05T03:15:24.814Z,101627.22
2022-08-05T03:17:55.804Z,101622.84
2022-08-05T03:20:23.663Z,101631.09
2022-08-05T03:23:34.952Z,101640.47
2022-08-05T03:26:31.627Z,101639.47
2022-08-05T03:28:59.417Z,101636.72
2022-08-05T03:31:56.854Z,101629.06
2022-08-05T03:38:00.958Z,101623.69
2022-08-05T03:40:32.012Z,101622.56
2022-08-05T03:43:59.309Z,101618.69
2022-08-05T03:46:16.637Z,101628.25
2022-08-05T03:48:45.394Z,101617.88
2022-08-05T03:52:37.866Z,101629.19
2022-08-05T03:55:00.074Z,101631.31
2022-08-05T03:57:41.636Z,101627.56
2022-08-05T04:01:05.324Z,101638.25
2022-08-05T04:03:56.936Z,101631.94
2022-08-05T04:06:47.352Z,101639.06
2022-08-05T04:09:25.873Z,101633.38
2022-08-05T04:12:02.753Z,101632.06
2022-08-05T04:14:31.855Z,101635.44
2022-08-05T04:17:03.073Z,101631.34
2022-08-05T04:19:30.749Z,101637.69
2022-08-05T04:22:10.248Z,101640.22
2022-08-05T04:25:14.169Z,101648.28
2022-08-05T04:27:58.942Z,101646.66
2022-08-05T04:30:31.401Z,101648.69
2022-08-05T04:32:58.201Z,101651.16
2022-08-05T04:36:16.570Z,101654.50
2022-08-05T04:38:39.691Z,101648.00
2022-08-05T04:41:21.004Z,101648.13
2022-08-05T04:44:00.792Z,101651.38
2022-08-05T04:46:36.168Z,101647.31
2022-08-05T04:49:38.767Z,101644.84
2022-08-05T04:52:12.193Z,101644.25
2022-08-05T04:54:38.693Z,101643.72
2022-08-05T04:57:05.374Z,101650.34
2022-08-05T04:59:38.628Z,101650.97
2022-08-05T05:02:37.169Z,101642.72
2022-08-05T05:05:02.307Z,101645.78
2022-08-05T05:07:35.297Z,101657.28
2022-08-05T05:10:05.394Z,101655.34
2022-08-05T05:12:33.364Z,101652.59
2022-08-05T05:15:10.797Z,101652.09
2022-08-05T05:17:55.822Z,101656.75
2022-08-05T05:20:32.664Z,101655.03
2022-08-05T05:23:08.064Z,101650.53
2022-08-05T05:25:58.226Z,101657.66
2022-08-05T05:28:38.974Z,101655.16
2022-08-05T05:31:15.655Z,101658.94
2022-08-05T05:33:59.311Z,101663.59
2022-08-05T05:36:28.551Z,101657.47
2022-08-05T05:38:58.337Z,101660.44
2022-08-05T05:41:40.832Z,101658.31
2022-08-05T05:44:37.636Z,101659.94
2022-08-05T05:47:21.293Z,101657.47
2022-08-05T05:50:01.550Z,101665.13
2022-08-05T05:52:32.931Z,101660.13
2022-08-05T05:56:00.776Z,101668.97
2022-08-05T05:58:31.639Z,101670.44
2022-08-05T06:01:04.940Z,101672.84
2022-08-05T06:03:54.172Z,101677.63
2022-08-05T06:06:38.230Z,101685.78
2022-08-05T06:09:08.514Z,101685.78
2022-08-05T06:11:39.324Z,101685.44
2022-08-05T06:14:34.978Z,101687.28
2022-08-05T06:17:24.326Z,101680.66
2022-08-05T06:19:56.861Z,101683.94
2022-08-05T06:22:34.424Z,101685.44
2022-08-05T06:25:24.934Z,101688.38
2022-08-05T06:28:10.782Z,101689.09
2022-08-05T06:30:34.984Z,101693.88
2022-08-05T06:33:02.315Z,101699.88
2022-08-05T06:36:07.113Z,101693.75
2022-08-05T06:38:46.904Z,101684.88
2022-08-05T06:41:26.475Z,101691.34
2022-08-05T06:44:00.213Z,101693.81
2022-08-05T06:46:29.703Z,101692.56
2022-08-05T06:48:58.903Z,101694.19
2022-08-05T06:51:29.763Z,101697.75
2022-08-05T06:54:01.891Z,101701.63
2022-08-05T06:56:30.180Z,101711.63
2022-08-05T06:59:00.446Z,101712.75
2022-08-05T07:01:27.700Z,101707.25
2022-08-05T07:04:02.453Z,101712.88
2022-08-05T07:06:31.917Z,101721.13
2022-08-05T07:09:05.291Z,101724.53
2022-08-05T07:11:36.870Z,101728.56
2022-08-05T07:14:29.660Z,101723.19
2022-08-05T07:18:00.457Z,101729.63
2022-08-05T07:22:43.710Z,101739.91
2022-08-05T07:25:54.908Z,101744.66
2022-08-05T07:28:07.271Z,101753.91
2022-08-05T07:30:39.705Z,101750.88
2022-08-05T07:33:16.519Z,101759.00
2022-08-05T07:36:20.343Z,101758.19
2022-08-05T07:38:49.421Z,101756.38
2022-08-05T07:42:12.893Z,101764.53
2022-08-05T07:44:14.291Z,101766.31
2022-08-05T07:46:49.606Z,101764.28
2022-08-05T07:49:34.048Z,101758.88
2022-08-05T07:52:10.197Z,101763.88
2022-08-05T07:54:41.175Z,101773.66
2022-08-05T07:57:58.858Z,101771.09
2022-08-05T08:00:14.932Z,101773.22
2022-08-05T08:03:13.761Z,101780.03
2022-08-05T08:05:39.490Z,101770.81
2022-08-05T08:08:21.060Z,101784.59
2022-08-05T08:10:49.187Z,101787.56
2022-08-05T08:13:22.121Z,101791.44
2022-08-05T08:16:35.120Z,101782.94
2022-08-05T08:18:42.369Z,101793.50
2022-08-05T08:21:21.465Z,101793.69
2022-08-05T08:24:02.764Z,101786.09
2022-08-05T08:26:31.246Z,101794.13
2022-08-05T08:30:03.207Z,101786.06
2022-08-05T08:31:52.816Z,101791.72
2022-08-05T08:34:30.212Z,101796.78
2022-08-05T08:37:01.764Z,101809.19
2022-08-05T08:39:49.526Z,101812.31
2022-08-05T08:42:33.964Z,101814.72
2022-08-05T08:45:40.558Z,101814.72
2022-08-05T08:48:22.308Z,101818.06
2022-08-05T08:52:01.705Z,101825.97
2022-08-05T08:55:00.315Z,101821.75
2022-08-05T08:57:41.998Z,101823.75
2022-08-05T09:00:15.790Z,101831.66
2022-08-05T09:02:46.513Z,101831.03
2022-08-05T09:05:38.951Z,101826.50
2022-08-05T09:08:14.235Z,101832.41
2022-08-05T09:10:54.973Z,101839.25
2022-08-05T09:14:09.501Z,101835.97
2022-08-05T09:16:28.958Z,101843.47
2022-08-05T09:18:55.995Z,101847.91
2022-08-05T09:22:22.325Z,101842.38
2022-08-05T09:24:19.023Z,101841.63
2022-08-05T09:26:56.317Z,101845.72
2022-08-05T09:29:47.973Z,101848.22
2022-08-05T09:32:46.312Z,101844.19
2022-08-05T09:35:27.668Z,101853.59
2022-08-05T09:38:11.975Z,101854.09
2022-08-05T09:40:52.650Z,101870.16
2022-08-05T09:43:40.605Z,101866.84
2022-08-05T09:46:51.644Z,101876.94
2022-08-05T09:49:54.836Z,101881.19
2022-08-05T09:52:29.198Z,101879.72
2022-08-05T09:54:57.073Z,101881.31
2022-08-05T09:57:49.611Z,101887.97
2022-08-05T10:00:26.617Z,101895.91
2022-08-05T10:03:11.383Z,101902.44
2022-08-05T10:05:46.257Z,101898.72
2022-08-05T10:08:37.797Z,101901.00
2022-08-05T10:11:43.729Z,101905.06
2022-08-05T10:14:33.206Z,101900.50
2022-08-05T10:17:37.828Z,101903.41
2022-08-05T10:20:10.079Z,101901.75
2022-08-05T10:22:51.139Z,101905.16
2022-08-05T10:25:19.125Z,101909.53
2022-08-05T10:28:16.772Z,101901.41
2022-08-05T10:31:19.944Z,101911.44
2022-08-05T10:33:24.958Z,101917.97
2022-08-05T10:35:59.748Z,101909.31
2022-08-05T10:38:28.507Z,101910.56
2022-08-05T10:41:26.056Z,101911.91
2022-08-05T10:44:30.012Z,101909.31
2022-08-05T10:47:26.646Z,101922.50
2022-08-05T10:50:32.365Z,101929.50
2022-08-05T10:53:01.094Z,101920.19
2022-08-05T10:55:28.343Z,101928.53
2022-08-05T10:58:11.723Z,101945.34
2022-08-05T11:00:47.438Z,101945.66
2022-08-05T11:03:24.371Z,101938.88
2022-08-05T11:06:04.773Z,101940.47
2022-08-05T11:08:37.158Z,101947.78
2022-08-05T11:11:51.987Z,101947.00
2022-08-05T11:17:59.859Z,101951.09
2022-08-05T11:20:32.656Z,101950.13
2022-08-05T11:24:05.689Z,101958.41
2022-08-05T11:26:28.526Z,101953.66
2022-08-05T11:29:28.176Z,101963.56
2022-08-05T11:32:26.350Z,101966.97
2022-08-05T11:34:54.158Z,101968.59
2022-08-05T11:38:26.574Z,101968.75
2022-08-05T11:41:36.820Z,101974.78
2022-08-05T11:44:40.159Z,101987.13
2022-08-05T11:47:15.250Z,101988.22
2022-08-05T11:49:49.577Z,101994.38
2022-08-05T11:52:29.254Z,101996.47
2022-08-05T11:54:58.174Z,102010.22
2022-08-05T11:58:10.223Z,102004.69
2022-08-05T12:00:32.704Z,102004.19
2022-08-05T12:03:31.519Z,102014.91
2022-08-05T12:06:20.049Z,102020.63
2022-08-05T12:08:57.562Z,102019.19
2022-08-05T12:11:28.381Z,102025.41
2022-08-05T12:14:17.314Z,102021.34
2022-08-05T12:16:47.311Z,102033.53
2022-08-05T12:20:26.159Z,102039.56
2022-08-05T12:22:29.876Z,102047.72
2022-08-05T12:24:58.554Z,102043.31
2022-08-05T12:27:32.626Z,102032.13
2022-08-05T12:30:06.494Z,102048.06
2022-08-05T12:32:51.224Z,102050.16
2022-08-05T12:35:21.731Z,102048.84
2022-08-05T12:38:18.389Z,102055.78
2022-08-05T12:40:49.905Z,102060.31
2022-08-05T12:43:20.910Z,102060.94
2022-08-05T12:45:55.423Z,102063.19
2022-08-05T12:48:32.176Z,102075.47
2022-08-05T12:52:11.031Z,102069.72
2022-08-05T12:54:14.743Z,102073.09
2022-08-05T12:56:51.000Z,102071.34
2022-08-05T12:59:21.110Z,102081.78
2022-08-05T13:02:15.486Z,102075.34
2022-08-05T13:05:14.696Z,102087.91
2022-08-05T13:08:04.614Z,102088.25
2022-08-05T13:10:50.268Z,102081.78
2022-08-05T13:14:06.687Z,102089.72
2022-08-05T13:16:15.243Z,102089.09
2022-08-05T13:18:51.841Z,102094.13
2022-08-05T13:21:48.047Z,102093.16
2022-08-05T13:24:14.444Z,102092.41
2022-08-05T13:26:54.212Z,102096.56
2022-08-05T13:29:37.821Z,102094.53
2022-08-05T13:32:05.518Z,102099.44
2022-08-05T13:34:32.667Z,102093.47
2022-08-05T13:37:00.226Z,102096.72
2022-08-05T13:40:16.235Z,102106.00
2022-08-05T13:42:16.262Z,102117.50
2022-08-05T13:44:45.955Z,102110.09
2022-08-05T13:47:36.017Z,102105.16
2022-08-05T13:50:04.543Z,102113.63
2022-08-05T13:52:32.272Z,102109.38
2022-08-05T13:55:02.669Z,102127.31
2022-08-05T13:57:50.870Z,102126.59
2022-08-05T14:00:19.760Z,102115.94
2022-08-05T14:02:57.145Z,102126.38
2022-08-05T14:06:24.652Z,102118.38
2022-08-05T14:08:32.487Z,102131.31
2022-08-05T14:11:22.075Z,102138.63
2022-08-05T14:13:48.641Z,102129.22
2022-08-05T14:16:21.615Z,102131.56
2022-08-05T14:18:48.248Z,102134.81
2022-08-05T14:22:06.715Z,102142.09
2022-08-05T14:24:02.460Z,102137.06
2022-08-05T14:26:38.516Z,102139.66
2022-08-05T14:29:16.076Z,102148.66
2022-08-05T14:32:02.411Z,102152.16
2022-08-05T14:34:35.186Z,102153.41
2022-08-05T14:37:13.410Z,102155.25
2022-08-05T14:39:49.418Z,102162.22
2022-08-05T14:42:26.993Z,102161.91
2022-08-05T14:44:53.714Z,102154.63
2022-08-05T14:48:03.138Z,102159.53
2022-08-05T14:50:19.529Z,102156.44
2022-08-05T14:52:58.303Z,102159.03
2022-08-05T14:55:38.537Z,102173.56
2022-08-05T14:58:21.208Z,102170.94
2022-08-05T15:00:59.830Z,102169.59
2022-08-05T15:03:33.582Z,102172.47
2022-08-05T15:06:08.294Z,102174.53
2022-08-05T15:09:01.331Z,102178.63
2022-08-05T15:11:53.067Z,102174.13
2022-08-05T15:14:34.436Z,102178.34
2022-08-05T15:17:04.779Z,102181.63
2022-08-05T15:19:39.049Z,102192.75
2022-08-05T15:22:05.916Z,102183.16
2022-08-05T15:24:33.537Z,102188.34
2022-08-05T15:27:36.042Z,102186.13
2022-08-05T15:30:03.324Z,102193.59
2022-08-05T15:32:29.861Z,102205.41
2022-08-05T15:34:58.123Z,102202.75
2022-08-05T15:38:34.522Z,102198.28
2022-08-05T15:41:01.465Z,102199.50
2022-08-05T15:43:12.676Z,102201.75
2022-08-05T15:45:46.039Z,102206.63
2022-08-05T15:48:26.956Z,102199.91
2022-08-05T15:50:53.364Z,102206.63
2022-08-05T15:53:22.735Z,102201.72
2022-08-05T15:56:01.964Z,102204.34
2022-08-05T15:58:35.506Z,102201.59
2022-08-05T16:01:17.415Z,102206.06
2022-08-05T16:03:48.600Z,102203.13
2022-08-05T16:06:19.960Z,102201.69
2022-08-05T16:09:07.601Z,102211.69
2022-08-05T16:11:40.228Z,102210.06
2022-08-05T16:14:09.986Z,102211.25
2022-08-05T16:16:44.288Z,102212.78
2022-08-05T16:19:25.296Z,102221.66
2022-08-05T16:22:02.845Z,102217.78
2022-08-05T16:24:41.840Z,102214.41
2022-08-05T16:27:47.049Z,102219.09
2022-08-05T16:30:25.760Z,102224.91
2022-08-05T16:32:53.008Z,102225.59
2022-08-05T16:35:19.474Z,102229.16
2022-08-05T16:38:18.420Z,102243.25
2022-08-05T16:40:55.028Z,102249.38
2022-08-05T16:43:25.400Z,102249.88
2022-08-05T16:46:04.549Z,102249.16
2022-08-05T16:48:39.258Z,102257.09
2022-08-05T16:51:09.653Z,102259.56
2022-08-05T16:54:06.050Z,102261.56
2022-08-05T16:56:29.557Z,102260.53
2022-08-05T16:59:07.568Z,102265.00
2022-08-05T17:01:52.894Z,102262.91
2022-08-05T17:04:21.980Z,102265.72
2022-08-05T17:06:53.521Z,102260.38
2022-08-05T17:09:20.557Z,102255.09
2022-08-05T17:11:48.771Z,102266.91
2022-08-05T17:14:34.376Z,102275.84
2022-08-05T17:17:03.997Z,102274.50
2022-08-05T17:19:31.282Z,102275.69
2022-08-05T17:21:58.450Z,102275.56
2022-08-05T17:24:35.198Z,102279.41
2022-08-05T17:27:10.101Z,102285.50
2022-08-05T17:29:41.343Z,102276.72
2022-08-05T17:32:17.193Z,102281.19
2022-08-05T17:34:49.107Z,102277.66
2022-08-05T17:37:41.732Z,102285.97
2022-08-05T17:40:10.148Z,102287.41
2022-08-05T17:42:41.739Z,102293.22
2022-08-05T17:45:21.833Z,102302.59
2022-08-05T17:47:55.684Z,102302.91
2022-08-05T17:50:30.548Z,102307.88
2022-08-05T17:53:02.545Z,102315.03
2022-08-05T17:55:39.615Z,102311.75
2022-08-05T17:58:09.798Z,102321.63
2022-08-05T18:00:39.916Z,102322.16
2022-08-05T18:03:11.251Z,102322.84
2022-08-05T18:05:39.038Z,102332.78
2022-08-05T18:08:13.915Z,102336.38
2022-08-05T18:10:40.527Z,102334.22
2022-08-05T18:13:12.492Z,102335.03
2022-08-05T18:15:39.475Z,102336.13
2022-08-05T18:18:11.165Z,102334.22
2022-08-05T18:20:43.168Z,102339.41
2022-08-05T18:23:13.468Z,102345.25
2022-08-05T18:25:44.882Z,102346.69
2022-08-05T18:28:16.025Z,102354.38
2022-08-05T18:30:49.996Z,102355.47
2022-08-05T18:33:22.766Z,102359.06
2022-08-05T18:36:03.261Z,102360.44
2022-08-05T18:38:36.292Z,102370.13
2022-08-05T18:41:56.853Z,102366.03
2022-08-05T18:43:53.899Z,102372.09
2022-08-05T18:46:21.710Z,102373.22
2022-08-05T18:48:53.692Z,102380.38
2022-08-05T18:52:04.098Z,102375.22
2022-08-05T18:54:31.303Z,102382.59
2022-08-05T18:57:02.518Z,102382.59
2022-08-05T18:59:43.895Z,102384.78
2022-08-05T19:02:26.847Z,102394.75
2022-08-05T19:06:06.117Z,102391.72
2022-08-05T19:08:12.287Z,102394.81
2022-08-05T19:10:45.628Z,102400.31
2022-08-05T19:13:25.323Z,102397.25
2022-08-05T19:16:03.606Z,102395.09
2022-08-05T19:18:31.480Z,102400.03
2022-08-05T19:20:59.727Z,102401.44
2022-08-05T19:24:05.862Z,102411.91
2022-08-05T19:26:21.958Z,102408.06
2022-08-05T19:28:59.997Z,102409.22
2022-08-05T19:31:33.823Z,102414.69
2022-08-05T19:34:11.523Z,102424.06
2022-08-05T19:36:48.044Z,102422.97
2022-08-05T19:39:22.306Z,102428.19
2022-08-05T19:42:06.873Z,102423.56
2022-08-05T19:44:44.608Z,102435.09
2022-08-05T19:47:11.292Z,102436.75
2022-08-05T19:49:41.832Z,102442.53
2022-08-05T19:52:31.844Z,102450.25
2022-08-05T19:56:13.997Z,102449.41
2022-08-05T19:58:28.540Z,102454.91
2022-08-05T20:01:27.176Z,102466.47
2022-08-05T20:04:21.100Z,102462.94
2022-08-05T20:06:50.808Z,102463.75
2022-08-05T20:09:17.610Z,102473.06
2022-08-05T20:11:48.033Z,102469.78
2022-08-05T20:14:27.123Z,102466.78
2022-08-05T20:17:09.234Z,102475.81
2022-08-05T20:19:56.615Z,102476.66
2022-08-05T20:22:31.788Z,102489.00
2022-08-05T20:25:33.896Z,102485.72
2022-08-05T20:28:16.863Z,102488.50
2022-08-05T20:30:51.710Z,102496.97
2022-08-05T20:33:18.165Z,102496.72
2022-08-05T20:35:54.206Z,102485.19
2022-08-05T20:38:27.159Z,102495.63
2022-08-05T20:41:04.668Z,102501.13
2022-08-05T20:43:58.789Z,102504.66
2022-08-05T20:46:31.199Z,102505.22
2022-08-05T20:48:58.358Z,102513.44
2022-08-05T20:51:25.097Z,102515.94
2022-08-05T20:53:56.208Z,102519.22
2022-08-05T20:56:32.983Z,102516.19
2022-08-05T20:59:14.068Z,102518.38
2022-08-05T21:01:51.785Z,102515.38
2022-08-05T21:04:19.013Z,102512.88
2022-08-05T21:06:53.532Z,102517.81
2022-08-05T21:09:22.131Z,102525.22
2022-08-05T21:12:06.560Z,102517.81
2022-08-05T21:14:35.986Z,102522.72
2022-08-05T21:17:26.212Z,102524.09
2022-08-05T21:19:55.115Z,102530.16
2022-08-05T21:22:35.180Z,102520.53
2022-08-05T21:25:02.136Z,102529.84
2022-08-05T21:27:38.906Z,102530.13
2022-08-05T21:30:06.577Z,102525.16
2022-08-05T21:32:35.283Z,102524.06
2022-08-05T21:35:09.134Z,102522.94
2022-08-05T21:37:52.736Z,102533.06
2022-08-05T21:40:23.154Z,102530.03
2022-08-05T21:42:52.082Z,102540.44
2022-08-05T21:45:25.012Z,102543.16
2022-08-05T21:48:09.741Z,102540.97
2022-08-05T21:50:56.355Z,102540.69
2022-08-05T21:53:27.690Z,102544.53
2022-08-05T21:56:04.732Z,102541.22
2022-08-05T21:58:33.357Z,102546.94
2022-08-05T22:01:04.683Z,102542.84
2022-08-05T22:03:48.545Z,102543.91
2022-08-05T22:06:39.675Z,102548.56
2022-08-05T22:09:13.286Z,102539.81
2022-08-05T22:11:41.809Z,102545.28
2022-08-05T22:14:34.613Z,102551.25
2022-08-05T22:17:00.191Z,102553.69
2022-08-05T22:20:00.976Z,102550.38
2022-08-05T22:22:28.211Z,102553.97
2022-08-05T22:25:31.179Z,102561.06
2022-08-05T22:28:46.624Z,102559.09
2022-08-05T22:31:30.317Z,102560.47
2022-08-05T22:34:01.363Z,102557.19
2022-08-05T22:36:29.060Z,102562.91
2022-08-05T22:39:09.391Z,102568.09
2022-08-05T22:42:10.387Z,102565.88
2022-08-05T22:44:53.648Z,102559.84
2022-08-05T22:47:29.076Z,102571.34
2022-08-05T22:50:17.874Z,102579.00
2022-08-05T22:52:44.097Z,102576.22
2022-08-05T22:55:19.197Z,102573.78
2022-08-05T22:57:47.307Z,102573.69
2022-08-05T23:00:18.428Z,102587.66
2022-08-05T23:02:53.645Z,102586.28
2022-08-05T23:05:36.183Z,102583.81
2022-08-05T23:08:14.282Z,102585.16
2022-08-05T23:10:41.758Z,102588.16
2022-08-05T23:13:08.730Z,102589.75
2022-08-05T23:16:00.284Z,102605.03
2022-08-05T23:18:31.235Z,102596.59
2022-08-05T23:21:42.891Z,102594.63
2022-08-05T23:24:34.352Z,102609.09
2022-08-05T23:27:01.101Z,102604.72
2022-08-05T23:29:36.649Z,102604.66
2022-08-05T23:32:13.566Z,102612.31
2022-08-05T23:34:43.474Z,102610.59
2022-08-05T23:37:36.569Z,102620.66
2022-08-05T23:40:29.090Z,102620.34
2022-08-05T23:42:58.848Z,102609.13
2022-08-05T23:45:31.300Z,102611.88
2022-08-05T23:48:05.027Z,102610.47
2022-08-05T23:50:50.661Z,102613.72
2022-08-05T23:53:46.421Z,102612.34
2022-08-05T23:56:13.584Z,102616.66
2022-08-05T23:58:55.082Z,102629.44
